Time;durP1;ratioP1;P1;durP2;ratioP2;P2;SDS_P1;SDS_P2;PMS_P1;PMS_P2;Temp;Humidity;BMP_temperature;BMP_pressure;BME280_temperature;BME280_humidity;BME280_pressure;Samples;Min_cycle;Max_cycle;Signal;HPM_P1;HPM_P2
2023/02/11 00:01:19;;;;;;;14.93;4.93;;;;;;;7.53;100.00;102536.09;4956161;28;20082;-92
2023/02/11 00:03:44;;;;;;;12.15;4.63;;;;;;;7.41;100.00;102539.69;4954783;29;20038;-93
2023/02/11 00:06:10;;;;;;;16.92;4.75;;;;;;;7.47;100.00;102542.16;4954911;28;20027;-92
2023/02/11 00:08:37;;;;;;;13.15;5.40;;;;;;;7.45;100.00;102520.78;4954761;29;20027;-92
2023/02/11 00:11:03;;;;;;;12.45;5.40;;;;;;;7.57;100.00;102524.09;4971314;28;20069;-92
2023/02/11 00:13:28;;;;;;;9.02;4.40;;;;;;;7.53;100.00;102510.41;4994478;28;20068;-92
2023/02/11 00:15:54;;;;;;;11.45;5.95;;;;;;;7.50;100.00;102518.16;4993492;28;20552;-93
2023/02/11 00:18:21;;;;;;;16.42;5.25;;;;;;;7.53;100.00;102520.69;4993417;28;20496;-93
2023/02/11 00:20:46;;;;;;;13.35;4.65;;;;;;;7.50;100.00;102523.28;4993282;28;20022;-92
2023/02/11 00:23:12;;;;;;;12.30;5.93;;;;;;;7.43;100.00;102522.50;4993141;28;20038;-92
2023/02/11 00:25:40;;;;;;;12.45;6.07;;;;;;;7.46;100.00;102521.63;4994364;28;20037;-92
2023/02/11 00:28:06;;;;;;;10.00;5.43;;;;;;;7.45;100.00;102514.78;4993112;28;20031;-92
2023/02/11 00:30:31;;;;;;;22.73;6.72;;;;;;;7.48;100.00;102504.47;4993345;28;20026;-92
2023/02/11 00:32:57;;;;;;;15.18;5.60;;;;;;;7.59;100.00;102512.06;4993134;28;20022;-93
2023/02/11 00:35:22;;;;;;;15.55;6.80;;;;;;;7.64;100.00;102518.84;4979144;28;20038;-92
2023/02/11 00:37:48;;;;;;;17.92;6.35;;;;;;;7.38;100.00;102502.88;4971309;28;20059;-92
2023/02/11 00:40:14;;;;;;;14.52;6.20;;;;;;;7.36;100.00;102517.44;4970172;28;20031;-93
2023/02/11 00:42:41;;;;;;;15.63;6.38;;;;;;;7.24;100.00;102515.84;4954269;28;20035;-91
2023/02/11 00:45:08;;;;;;;18.55;6.22;;;;;;;7.37;100.00;102522.59;4954134;29;20035;-92
2023/02/11 00:47:34;;;;;;;13.88;7.05;;;;;;;7.36;100.00;102518.28;4954021;28;20027;-93
2023/02/11 00:50:00;;;;;;;14.40;6.32;;;;;;;7.34;100.00;102488.34;4954041;28;20385;-93
2023/02/11 00:52:26;;;;;;;16.35;6.38;;;;;;;7.34;100.00;102494.38;4955918;28;20031;-93
2023/02/11 00:54:52;;;;;;;16.95;7.13;;;;;;;7.44;100.00;102501.09;4963551;28;20030;-92
2023/02/11 00:57:17;;;;;;;15.65;6.57;;;;;;;7.40;100.00;102490.88;4974313;28;20027;-92
2023/02/11 00:59:43;;;;;;;16.15;6.88;;;;;;;7.43;100.00;102498.53;4972881;28;20022;-93
2023/02/11 01:02:08;;;;;;;12.82;6.22;;;;;;;7.32;100.00;102496.09;4974261;28;20066;-92
2023/02/11 01:04:33;;;;;;;14.85;6.63;;;;;;;7.26;100.00;102504.69;4964385;28;20121;-92
2023/02/11 01:06:59;;;;;;;17.13;7.93;;;;;;;7.39;100.00;102522.53;4953789;28;20028;-93
2023/02/11 01:09:25;;;;;;;14.00;6.50;;;;;;;7.36;100.00;102526.00;4954747;28;20031;-92
2023/02/11 01:11:50;;;;;;;13.57;6.53;;;;;;;7.31;100.00;102511.50;4969726;28;20059;-92
2023/02/11 01:14:16;;;;;;;17.27;6.70;;;;;;;7.26;100.00;102512.41;4954542;28;20042;-92
2023/02/11 01:16:41;;;;;;;18.95;5.97;;;;;;;7.18;100.00;102506.50;4954560;28;20027;-93
2023/02/11 01:19:07;;;;;;;17.80;6.40;;;;;;;7.25;100.00;102523.56;4952896;28;20038;-92
2023/02/11 01:21:32;;;;;;;14.88;7.18;;;;;;;7.32;100.00;102520.94;4954627;28;20027;-92
2023/02/11 01:23:58;;;;;;;15.93;5.88;;;;;;;7.34;100.00;102526.88;4954307;28;20043;-92
2023/02/11 01:26:23;;;;;;;14.70;6.22;;;;;;;7.33;100.00;102513.19;4969367;28;20027;-92
2023/02/11 01:28:49;;;;;;;15.45;5.70;;;;;;;7.23;100.00;102502.16;4953459;28;20393;-92
2023/02/11 01:31:14;;;;;;;12.95;6.53;;;;;;;7.15;100.00;102492.84;4954756;28;20474;-92
2023/02/11 01:33:40;;;;;;;11.68;4.88;;;;;;;7.26;100.00;102502.13;4954240;28;20027;-91
2023/02/11 01:36:07;;;;;;;13.85;4.68;;;;;;;7.42;100.00;102507.13;4954562;28;20027;-91
2023/02/11 01:38:33;;;;;;;12.43;4.72;;;;;;;7.38;100.00;102518.28;4954710;28;20663;-92
2023/02/11 01:41:01;;;;;;;13.18;4.00;;;;;;;7.32;100.00;102500.38;4969291;28;20031;-93
2023/02/11 01:43:31;;;;;;;9.73;3.95;;;;;;;7.34;100.00;102512.34;4953000;28;20023;-92
2023/02/11 01:46:24;;;;;;;10.15;3.28;;;;;;;7.29;100.00;102520.09;4958783;28;20026;-92
2023/02/11 01:48:55;;;;;;;13.63;3.80;;;;;;;7.25;100.00;102512.44;4960968;28;20058;-91
2023/02/11 01:51:26;;;;;;;7.78;3.25;;;;;;;7.23;100.00;102509.03;4953179;28;20035;-93
2023/02/11 01:59:33;;;;;;;9.00;3.05;;;;;;;7.24;100.00;102515.84;4978327;28;20499;-93
2023/02/11 02:02:05;;;;;;;10.82;3.45;;;;;;;7.29;100.00;102509.81;4992205;28;20026;-92
2023/02/11 02:04:37;;;;;;;12.77;3.58;;;;;;;7.33;100.00;102505.50;4991672;28;20034;-92
2023/02/11 02:07:24;;;;;;;13.68;3.80;;;;;;;7.41;100.00;102518.25;4975002;28;20027;-92
2023/02/11 02:09:58;;;;;;;11.65;3.13;;;;;;;7.32;100.00;102496.09;4972090;28;20392;-92
2023/02/11 02:12:23;;;;;;;10.60;3.00;;;;;;;7.37;100.00;102512.31;4972143;28;20022;-92
2023/02/11 02:14:49;;;;;;;7.82;3.20;;;;;;;7.24;100.00;102506.47;4971496;28;20451;-93
2023/02/11 02:17:37;;;;;;;14.65;3.60;;;;;;;7.33;100.00;102502.06;4971288;28;20474;-92
2023/02/11 02:20:38;;;;;;;11.30;3.40;;;;;;;7.38;100.00;102511.44;4960560;28;20031;-91
2023/02/11 02:23:23;;;;;;;7.30;3.15;;;;;;;7.32;100.00;102518.38;4964793;28;20515;-92
2023/02/11 02:26:32;;;;;;;11.02;2.97;;;;;;;7.31;100.00;102521.78;4965474;28;20069;-92
2023/02/11 02:29:10;;;;;;;13.75;3.45;;;;;;;7.24;100.00;102521.00;4964261;28;20046;-92
2023/02/11 02:31:41;;;;;;;13.25;3.40;;;;;;;7.25;100.00;102515.84;4952239;28;20023;-91
2023/02/11 02:34:22;;;;;;;7.20;3.30;;;;;;;7.17;100.00;102503.94;4959221;28;20405;-92
2023/02/11 02:37:18;;;;;;;11.13;3.35;;;;;;;7.18;100.00;102511.63;4968264;28;20597;-93
2023/02/11 02:39:47;;;;;;;11.45;3.22;;;;;;;7.16;100.00;102503.09;4952234;29;20393;-92
2023/02/11 02:42:14;;;;;;;10.48;4.97;;;;;;;7.10;100.00;102508.31;4952500;28;20054;-93
2023/02/11 02:44:40;;;;;;;12.68;4.32;;;;;;;7.11;100.00;102502.28;4963519;28;20050;-92
2023/02/11 02:47:05;;;;;;;14.85;3.53;;;;;;;7.06;100.00;102496.34;4967774;28;20071;-92
2023/02/11 02:49:31;;;;;;;17.00;4.10;;;;;;;7.03;100.00;102481.84;4953585;28;20035;-92
2023/02/11 02:52:38;;;;;;;6.35;3.30;;;;;;;7.04;100.00;102483.50;4971614;28;20490;-92
2023/02/11 02:55:33;;;;;;;9.13;3.17;;;;;;;7.03;100.00;102483.56;4970646;28;20137;-92
2023/02/11 02:58:26;;;;;;;13.10;3.78;;;;;;;7.09;100.00;102480.91;4964168;28;20031;-91
2023/02/11 03:00:58;;;;;;;14.77;3.75;;;;;;;7.09;100.00;102486.03;4951537;29;20031;-91
2023/02/11 03:03:36;;;;;;;12.68;3.42;;;;;;;7.06;100.00;102475.81;4951735;29;20118;-93
2023/02/11 03:06:09;;;;;;;10.18;3.75;;;;;;;7.01;100.00;102475.00;4956854;28;20031;-92
2023/02/11 03:08:54;;;;;;;13.60;4.15;;;;;;;6.93;100.00;102469.13;4951983;28;20027;-92
2023/02/11 03:11:21;;;;;;;10.32;3.70;;;;;;;6.92;100.00;102452.00;4952125;29;20027;-92
2023/02/11 03:13:48;;;;;;;9.43;3.83;;;;;;;6.93;100.00;102454.56;4951955;29;20019;-92
2023/02/11 03:16:27;;;;;;;11.60;3.88;;;;;;;6.94;100.00;102447.69;4961017;28;20023;-92
2023/02/11 03:19:02;;;;;;;17.98;3.40;;;;;;;7.02;100.00;102443.31;4955827;28;20090;-92
2023/02/11 03:21:31;;;;;;;8.13;3.25;;;;;;;6.94;100.00;102438.28;4951589;29;20031;-92
2023/02/11 03:24:01;;;;;;;8.18;2.63;;;;;;;6.89;100.00;102441.75;4953059;28;20028;-93
2023/02/11 03:26:42;;;;;;;8.18;2.83;;;;;;;6.93;100.00;102448.56;4960317;28;20028;-92
2023/02/11 03:29:22;;;;;;;11.43;2.60;;;;;;;7.01;100.00;102451.91;4956767;28;20038;-92
2023/02/11 03:32:18;;;;;;;12.23;3.20;;;;;;;6.97;100.00;102455.34;4957071;28;20074;-92
2023/02/11 03:34:59;;;;;;;8.07;2.50;;;;;;;6.88;100.00;102445.16;4969310;28;20031;-92
2023/02/11 03:37:42;;;;;;;8.02;2.45;;;;;;;7.04;100.00;102446.72;4959502;28;20490;-92
2023/02/11 03:40:14;;;;;;;7.78;2.42;;;;;;;7.04;100.00;102446.72;4956742;28;20024;-92
2023/02/11 03:42:47;;;;;;;10.52;2.60;;;;;;;6.99;100.00;102451.06;4959488;28;20034;-92
2023/02/11 03:45:16;;;;;;;8.63;2.30;;;;;;;6.98;100.00;102446.81;4955861;28;20019;-92
2023/02/11 03:47:47;;;;;;;12.00;2.47;;;;;;;6.94;100.00;102445.13;4974543;28;20117;-93
2023/02/11 03:50:16;;;;;;;9.20;2.60;;;;;;;7.03;100.00;102442.47;4965863;28;20035;-92
2023/02/11 03:52:42;;;;;;;7.75;2.47;;;;;;;6.97;100.00;102448.50;4957109;28;20038;-91
2023/02/11 03:55:15;;;;;;;7.65;2.45;;;;;;;7.06;100.00;102440.72;4959958;28;20034;-91
2023/02/11 03:57:40;;;;;;;7.25;2.47;;;;;;;7.07;100.00;102441.56;4954217;28;20038;-91
2023/02/11 04:00:08;;;;;;;8.35;2.60;;;;;;;7.11;100.00;102443.22;4971202;28;20031;-92
2023/02/11 04:02:35;;;;;;;8.88;2.60;;;;;;;7.05;100.00;102438.19;4955937;28;20023;-92
2023/02/11 04:05:02;;;;;;;11.48;3.03;;;;;;;7.05;100.00;102425.34;4954883;28;20490;-91
2023/02/11 04:07:27;;;;;;;11.10;2.45;;;;;;;7.23;100.00;102455.94;4954957;28;20054;-91
2023/02/11 04:09:53;;;;;;;12.32;2.95;;;;;;;7.07;100.00;102436.41;4954655;28;20445;-92
2023/02/11 04:12:19;;;;;;;10.25;2.80;;;;;;;7.10;100.00;102449.25;4956113;28;20557;-91
2023/02/11 04:14:45;;;;;;;10.15;2.88;;;;;;;7.07;100.00;102462.09;4954720;28;20359;-92
2023/02/11 04:17:11;;;;;;;7.40;2.33;;;;;;;7.06;100.00;102460.41;4955981;28;20397;-92
2023/02/11 04:19:37;;;;;;;8.30;2.28;;;;;;;6.92;100.00;102449.41;4955617;28;20367;-92
2023/02/11 04:22:02;;;;;;;21.98;3.20;;;;;;;7.02;100.00;102469.00;4955880;28;20023;-92
2023/02/11 04:24:28;;;;;;;13.38;2.90;;;;;;;6.93;100.00;102453.72;4955348;28;20393;-91
2023/02/11 04:26:54;;;;;;;16.05;2.72;;;;;;;6.92;100.00;102464.81;4955027;28;20063;-92
2023/02/11 04:29:20;;;;;;;11.73;2.78;;;;;;;7.04;100.00;102474.97;4954513;28;20030;-93
2023/02/11 04:31:45;;;;;;;11.27;3.42;;;;;;;7.00;100.00;102479.31;4955610;28;20520;-92
2023/02/11 04:34:11;;;;;;;15.07;4.88;;;;;;;7.07;100.00;102478.38;4954348;28;20023;-92
2023/02/11 04:36:36;;;;;;;5.13;2.00;;;;;;;7.02;100.00;102484.41;4954426;28;20090;-92
2023/02/11 04:39:03;;;;;;;9.55;2.10;;;;;;;7.03;100.00;102496.38;4953923;28;20114;-92
2023/02/11 04:41:28;;;;;;;8.25;3.33;;;;;;;6.98;100.00;102475.91;4954146;28;20478;-92
2023/02/11 04:43:53;;;;;;;7.25;2.20;;;;;;;7.05;100.00;102482.66;4954020;28;20031;-92
2023/02/11 04:46:19;;;;;;;8.45;2.17;;;;;;;7.11;100.00;102497.16;4954178;29;20035;-92
2023/02/11 04:48:45;;;;;;;9.93;2.75;;;;;;;7.04;100.00;102492.94;4955454;28;20057;-92
2023/02/11 04:51:10;;;;;;;9.68;2.42;;;;;;;7.01;100.00;102504.09;4955241;28;20023;-92
2023/02/11 04:53:36;;;;;;;12.55;2.50;;;;;;;6.91;100.00;102483.66;4955093;28;20027;-92
2023/02/11 04:56:01;;;;;;;11.43;2.83;;;;;;;7.02;100.00;102494.66;4955307;28;20374;-92
2023/02/11 04:58:27;;;;;;;10.52;3.30;;;;;;;6.98;100.00;102493.88;4955160;28;20046;-92
2023/02/11 05:00:52;;;;;;;15.75;3.45;;;;;;;6.93;100.00;102502.47;4953905;28;20114;-92
2023/02/11 05:03:18;;;;;;;5.97;3.30;;;;;;;6.94;100.00;102502.44;4955032;28;20031;-92
2023/02/11 05:05:43;;;;;;;15.55;5.05;;;;;;;7.03;100.00;102517.78;4955058;28;20031;-92
2023/02/11 05:08:10;;;;;;;16.17;4.47;;;;;;;7.08;100.00;102525.44;4953865;28;20401;-92
2023/02/11 05:10:36;;;;;;;9.27;3.90;;;;;;;7.14;100.00;102506.53;4953847;29;20061;-92
2023/02/11 05:13:01;;;;;;;11.85;4.25;;;;;;;7.14;100.00;102509.94;4953683;28;20590;-91
2023/02/11 05:15:27;;;;;;;14.15;4.28;;;;;;;7.13;100.00;102518.53;4953700;28;20023;-92
2023/02/11 05:17:53;;;;;;;13.60;4.05;;;;;;;7.04;100.00;102516.91;4953489;28;20371;-92
2023/02/11 05:20:18;;;;;;;17.60;4.57;;;;;;;7.09;100.00;102524.56;4954840;29;20026;-92
2023/02/11 05:22:44;;;;;;;17.35;4.50;;;;;;;7.08;100.00;102530.56;4953572;28;20023;-92
2023/02/11 05:25:10;;;;;;;15.20;4.30;;;;;;;7.12;100.00;102532.25;4954561;28;20023;-92
2023/02/11 05:27:35;;;;;;;14.05;5.68;;;;;;;7.10;100.00;102530.56;4953500;28;20027;-91
2023/02/11 05:30:01;;;;;;;13.00;5.03;;;;;;;7.14;100.00;102539.94;4953207;28;20421;-92
2023/02/11 05:32:27;;;;;;;13.88;4.95;;;;;;;7.07;100.00;102534.88;4953280;28;20023;-92
2023/02/11 05:34:52;;;;;;;14.90;5.22;;;;;;;6.93;100.00;102528.16;4953372;28;20140;-92
2023/02/11 05:37:18;;;;;;;14.32;6.13;;;;;;;6.87;100.00;102511.06;4954467;28;20171;-92
2023/02/11 05:39:43;;;;;;;11.52;5.43;;;;;;;6.92;100.00;102522.13;4954336;28;20102;-92
2023/02/11 05:42:09;;;;;;;22.38;6.57;;;;;;;6.88;100.00;102511.91;4954639;28;20039;-92
2023/02/11 05:44:34;;;;;;;11.57;5.47;;;;;;;6.93;100.00;102515.31;4954426;28;20032;-92
2023/02/11 05:47:00;;;;;;;22.27;6.35;;;;;;;6.97;100.00;102511.84;4953142;28;20055;-93
2023/02/11 05:49:25;;;;;;;16.85;5.78;;;;;;;7.01;100.00;102514.38;4968715;28;20063;-92
2023/02/11 05:51:51;;;;;;;15.50;5.93;;;;;;;7.13;100.00;102517.69;4952849;28;20031;-92
2023/02/11 05:54:16;;;;;;;14.10;6.47;;;;;;;7.07;100.00;102528.84;4954262;28;20486;-92
2023/02/11 05:56:42;;;;;;;12.45;5.90;;;;;;;6.91;100.00;102506.78;4954211;28;20114;-92
2023/02/11 05:59:08;;;;;;;17.02;6.00;;;;;;;7.02;100.00;102525.47;4952918;28;20130;-92
2023/02/11 06:01:33;;;;;;;19.35;6.60;;;;;;;7.02;100.00;102528.03;4954117;28;20084;-92
2023/02/11 06:03:59;;;;;;;16.63;6.75;;;;;;;7.00;100.00;102522.09;4953930;28;20035;-92
2023/02/11 06:06:24;;;;;;;23.77;8.88;;;;;;;6.83;100.00;102494.00;4953970;28;20174;-92
2023/02/11 06:08:50;;;;;;;16.60;6.45;;;;;;;6.88;100.00;102517.03;4952778;28;20035;-91
2023/02/11 06:11:16;;;;;;;17.35;6.35;;;;;;;6.97;100.00;102514.41;4952808;29;20381;-92
2023/02/11 06:13:42;;;;;;;21.27;7.18;;;;;;;6.97;100.00;102506.69;4952649;28;20090;-91
2023/02/11 06:16:07;;;;;;;18.30;6.22;;;;;;;6.90;100.00;102516.19;4952550;28;20031;-92
2023/02/11 06:18:33;;;;;;;15.93;7.72;;;;;;;6.84;100.00;102511.94;4968578;28;20046;-93
2023/02/11 06:20:59;;;;;;;20.98;7.07;;;;;;;6.82;100.00;102518.81;4953832;28;20034;-92
2023/02/11 06:23:24;;;;;;;13.00;6.80;;;;;;;6.78;100.00;102522.28;4953769;28;20027;-92
2023/02/11 06:25:51;;;;;;;20.80;7.65;;;;;;;6.79;100.00;102523.97;4953950;28;20481;-92
2023/02/11 06:28:17;;;;;;;16.58;6.55;;;;;;;6.85;100.00;102535.91;4953690;28;20055;-91
2023/02/11 06:30:42;;;;;;;20.98;7.10;;;;;;;6.75;100.00;102512.00;4968529;28;20122;-92
2023/02/11 06:33:08;;;;;;;20.58;9.02;;;;;;;6.80;100.00;102527.38;4953801;28;20058;-92
2023/02/11 06:35:34;;;;;;;20.80;8.25;;;;;;;6.83;100.00;102520.53;4952584;28;20027;-91
2023/02/11 06:38:00;;;;;;;17.98;7.28;;;;;;;6.81;100.00;102523.97;4953573;28;20569;-92
2023/02/11 06:40:26;;;;;;;16.00;7.18;;;;;;;6.88;100.00;102522.19;4953793;28;20051;-92
2023/02/11 06:42:51;;;;;;;16.25;6.93;;;;;;;6.82;100.00;102513.66;4953861;28;20098;-92
2023/02/11 06:45:17;;;;;;;19.35;7.28;;;;;;;6.86;100.00;102517.06;4952492;28;20047;-92
2023/02/11 06:47:42;;;;;;;15.57;6.03;;;;;;;6.68;100.00;102504.38;4953870;28;20031;-93
2023/02/11 06:50:12;;;;;;;23.58;6.68;;;;;;;6.72;100.00;102516.34;4968575;28;20027;-92
2023/02/11 06:52:37;;;;;;;16.30;6.50;;;;;;;6.72;100.00;102521.47;4953674;28;20035;-92
2023/02/11 06:55:03;;;;;;;16.08;6.25;;;;;;;6.65;100.00;102510.41;4953513;28;20035;-92
2023/02/11 06:57:29;;;;;;;15.27;6.90;;;;;;;6.66;100.00;102517.25;4968213;28;20046;-93
2023/02/11 06:59:54;;;;;;;18.75;6.85;;;;;;;6.62;100.00;102500.16;4953557;28;20445;-92
2023/02/11 07:02:20;;;;;;;18.02;7.55;;;;;;;6.75;100.00;102518.88;4954420;28;20027;-92
2023/02/11 07:04:45;;;;;;;17.25;6.32;;;;;;;6.74;100.00;102522.31;4957061;28;20031;-92
2023/02/11 07:07:11;;;;;;;19.73;7.47;;;;;;;6.61;100.00;102504.44;4957187;28;20086;-92
2023/02/11 07:09:36;;;;;;;19.77;7.15;;;;;;;6.68;100.00;102524.91;4957165;28;20023;-92
2023/02/11 07:12:02;;;;;;;15.05;6.70;;;;;;;6.66;100.00;102527.50;4955839;28;20027;-92
2023/02/11 07:14:28;;;;;;;13.35;5.85;;;;;;;6.63;100.00;102518.13;4955740;28;20023;-92
2023/02/11 07:16:53;;;;;;;14.25;7.22;;;;;;;6.64;100.00;102516.41;4957071;28;20213;-92
2023/02/11 07:19:19;;;;;;;14.38;6.65;;;;;;;6.55;100.00;102508.75;4956904;28;20254;-92
2023/02/11 07:21:44;;;;;;;16.05;7.05;;;;;;;6.52;100.00;102511.38;4957058;28;20062;-92
2023/02/11 07:24:10;;;;;;;18.15;7.82;;;;;;;6.57;100.00;102523.28;4955630;28;20448;-92
2023/02/11 07:26:36;;;;;;;18.65;7.63;;;;;;;6.68;100.00;102545.44;4956934;28;20152;-92
2023/02/11 07:29:02;;;;;;;22.40;8.85;;;;;;;6.63;100.00;102548.91;4957016;28;20030;-92
2023/02/11 07:31:29;;;;;;;19.95;7.47;;;;;;;6.57;100.00;102535.28;4956857;28;20035;-92
2023/02/11 07:33:58;;;;;;;17.48;7.68;;;;;;;6.70;100.00;102544.56;4956828;28;20035;-91
2023/02/11 07:36:25;;;;;;;27.73;9.95;;;;;;;6.64;100.00;102544.63;4956853;28;20505;-92
2023/02/11 07:38:50;;;;;;;20.88;8.90;;;;;;;6.64;100.00;102544.63;4955272;28;20035;-92
2023/02/11 07:41:18;;;;;;;19.15;7.93;;;;;;;6.79;100.00;102551.34;4956573;28;20374;-92
2023/02/11 07:43:44;;;;;;;22.88;9.40;;;;;;;6.78;100.00;102541.94;4955449;28;20026;-92
2023/02/11 07:46:16;;;;;;;22.77;8.63;;;;;;;6.79;100.00;102544.50;4971744;28;20026;-93
2023/02/11 07:48:41;;;;;;;25.27;8.88;;;;;;;6.88;100.00;102548.72;4955447;28;20028;-93
2023/02/11 07:51:13;;;;;;;19.17;8.00;;;;;;;6.96;100.00;102551.22;4955267;29;20030;-93
2023/02/11 07:53:39;;;;;;;18.40;8.45;;;;;;;7.02;100.00;102557.16;4955200;28;20046;-92
2023/02/11 07:56:06;;;;;;;16.10;8.85;;;;;;;7.03;100.00;102568.28;4972008;28;20026;-92
2023/02/11 07:58:32;;;;;;;17.30;8.55;;;;;;;7.01;100.00;102567.44;4975488;28;20027;-93
2023/02/11 08:01:06;;;;;;;18.92;9.70;;;;;;;6.99;100.00;102566.59;4973303;28;20512;-92
2023/02/11 08:03:32;;;;;;;22.00;9.25;;;;;;;6.99;100.00;102566.59;4968897;28;20032;-92
2023/02/11 08:06:01;;;;;;;20.48;8.45;;;;;;;7.12;100.00;102572.47;4954594;28;20478;-93
2023/02/11 08:08:27;;;;;;;22.90;8.23;;;;;;;7.07;100.00;102554.53;4960145;28;20031;-92
2023/02/11 08:10:53;;;;;;;29.92;9.10;;;;;;;7.22;100.00;102577.53;4993218;28;20088;-92
2023/02/11 08:13:18;;;;;;;16.70;7.38;;;;;;;7.15;100.00;102568.16;4965887;28;20122;-92
2023/02/11 08:15:44;;;;;;;15.35;8.02;;;;;;;7.19;100.00;102595.50;4967212;28;20506;-92
2023/02/11 08:18:09;;;;;;;16.58;7.82;;;;;;;7.12;100.00;102588.75;4970454;28;20027;-92
2023/02/11 08:20:35;;;;;;;20.05;6.57;;;;;;;7.15;100.00;102587.88;4977821;28;20109;-92
2023/02/11 08:23:01;;;;;;;22.98;8.23;;;;;;;7.24;100.00;102598.91;4994397;28;20105;-92
2023/02/11 08:25:26;;;;;;;19.58;8.73;;;;;;;7.21;100.00;102588.66;4978735;28;20019;-94
2023/02/11 08:27:52;;;;;;;19.45;7.57;;;;;;;7.25;100.00;102595.47;4964239;28;20035;-92
2023/02/11 08:30:17;;;;;;;14.10;7.30;;;;;;;7.42;100.00;102585.03;4973071;28;20062;-93
2023/02/11 08:32:43;;;;;;;21.05;8.00;;;;;;;7.40;100.00;102571.34;4969176;28;20033;-92
2023/02/11 08:35:11;;;;;;;14.82;7.05;;;;;;;7.59;100.00;102581.47;4978120;28;20362;-93
2023/02/11 08:37:37;;;;;;;14.77;7.95;;;;;;;7.73;100.00;102582.16;4968166;28;20034;-92
2023/02/11 08:40:03;;;;;;;18.70;7.53;;;;;;;7.83;100.00;102603.47;4972322;28;20026;-93
2023/02/11 08:42:28;;;;;;;17.35;7.05;;;;;;;7.94;100.00;102601.63;4972082;28;20114;-93
2023/02/11 08:44:54;;;;;;;14.70;6.95;;;;;;;7.97;100.00;102591.28;4956295;28;20106;-93
2023/02/11 08:47:19;;;;;;;14.52;7.60;;;;;;;8.18;100.00;102599.63;4954805;29;20126;-92
2023/02/11 08:49:45;;;;;;;13.27;6.50;;;;;;;8.38;100.00;102589.91;4955411;28;20366;-94
2023/02/11 08:52:11;;;;;;;11.27;6.53;;;;;;;8.64;100.00;102588.72;4966521;28;20027;-93
2023/02/11 08:54:36;;;;;;;13.55;7.40;;;;;;;9.10;100.00;102593.16;4959005;28;20027;-93
2023/02/11 08:57:02;;;;;;;12.95;5.72;;;;;;;9.15;100.00;102611.97;4968088;28;20536;-93
2023/02/11 08:59:27;;;;;;;16.50;6.20;;;;;;;8.85;100.00;102614.16;4954197;28;20374;-92
2023/02/11 09:01:53;;;;;;;13.95;6.53;;;;;;;8.71;100.00;102616.09;4955087;28;20343;-93
2023/02/11 09:04:19;;;;;;;12.52;5.28;;;;;;;8.64;100.00;102625.63;4955401;28;20429;-92
2023/02/11 09:06:44;;;;;;;12.60;5.43;;;;;;;8.63;100.00;102602.47;4970919;28;20034;-93
2023/02/11 09:09:12;;;;;;;11.80;4.82;;;;;;;8.73;100.00;102620.34;4959577;28;20396;-93
2023/02/11 09:11:39;;;;;;;10.13;4.88;;;;;;;8.57;100.00;102601.69;4974151;28;20031;-93
2023/02/11 09:14:05;;;;;;;16.52;5.20;;;;;;;8.66;100.00;102618.72;4965516;28;20038;-92
2023/02/11 09:16:33;;;;;;;8.00;4.22;;;;;;;8.81;100.00;102612.50;4963616;28;20023;-93
2023/02/11 09:19:00;;;;;;;7.85;3.97;;;;;;;8.89;100.00;102615.78;4954310;28;20039;-92
2023/02/11 09:21:28;;;;;;;9.35;4.30;;;;;;;8.99;100.00;102614.78;4961887;28;20133;-92
2023/02/11 09:23:53;;;;;;;7.32;3.78;;;;;;;9.17;100.00;102610.22;4956941;28;20023;-92
2023/02/11 09:26:25;;;;;;;14.65;4.38;;;;;;;9.23;100.00;102589.50;4955915;28;20477;-92
2023/02/11 09:28:51;;;;;;;13.13;4.55;;;;;;;9.52;100.00;102613.91;4972591;28;20448;-92
2023/02/11 09:31:22;;;;;;;14.02;5.30;;;;;;;9.57;100.00;102619.81;4973790;28;20081;-91
2023/02/11 09:33:50;;;;;;;7.50;3.70;;;;;;;9.71;100.00;102622.16;4972585;28;20846;-92
2023/02/11 09:36:18;;;;;;;7.53;3.67;;;;;;;9.61;100.00;102608.59;4973710;28;20051;-93
2023/02/11 09:38:45;;;;;;;7.82;3.72;;;;;;;9.80;100.00;102612.53;4967968;28;20039;-92
2023/02/11 09:41:22;;;;;;;10.07;3.80;;;;;;;10.08;100.00;102617.97;4955695;28;20051;-93
2023/02/11 09:43:51;;;;;;;9.82;3.55;;;;;;;10.18;100.00;102618.63;4963052;28;20015;-93
2023/02/11 09:46:19;;;;;;;6.85;3.15;;;;;;;10.25;100.00;102596.97;4969809;28;20027;-92
2023/02/11 09:48:48;;;;;;;9.38;3.10;;;;;;;10.42;99.99;102617.28;4978674;28;20022;-93
2023/02/11 09:51:33;;;;;;;7.07;3.00;;;;;;;10.41;97.12;102609.56;4985120;28;20093;-93
2023/02/11 09:54:04;;;;;;;6.15;2.88;;;;;;;10.59;96.60;102623.81;4989675;28;20026;-92
2023/02/11 09:56:30;;;;;;;9.98;2.70;;;;;;;10.60;95.06;102618.59;4966358;28;20096;-92
2023/02/11 09:58:55;;;;;;;8.88;2.30;;;;;;;10.80;94.79;102623.34;4965426;28;20493;-92
2023/02/11 10:01:36;;;;;;;5.57;2.25;;;;;;;11.16;92.15;102622.47;4972195;28;20054;-94
2023/02/11 10:04:07;;;;;;;5.07;2.60;;;;;;;11.34;88.65;102625.44;4963921;28;20027;-92
2023/02/11 10:06:41;;;;;;;5.45;2.58;;;;;;;11.62;87.55;102609.19;4964437;28;20037;-95
2023/02/11 10:09:39;;;;;;;6.78;2.33;;;;;;;11.89;86.35;102607.59;4972942;28;20050;-96
2023/02/11 10:12:27;;;;;;;6.82;2.35;;;;;;;12.14;84.81;102622.44;4964738;28;20548;-95
2023/02/11 10:15:41;;;;;;;11.88;2.97;;;;;;;12.55;82.58;102617.78;4970050;28;20027;-95
2023/02/11 10:18:31;;;;;;;13.63;3.63;;;;;;;12.45;81.90;102606.00;4953200;28;20062;-95
2023/02/11 10:21:40;;;;;;;7.28;2.45;;;;;;;12.26;81.80;102624.66;4958155;28;20074;-96
2023/02/11 10:24:14;;;;;;;7.75;2.00;;;;;;;12.19;81.77;102630.91;4938729;28;20039;-96
2023/02/11 10:26:41;;;;;;;5.95;2.50;;;;;;;12.16;81.57;102625.84;4967425;28;20138;-95
2023/02/11 10:29:30;;;;;;;6.38;2.28;;;;;;;12.09;82.20;102621.72;4968948;28;20087;-94
2023/02/11 10:31:58;;;;;;;6.53;2.40;;;;;;;12.37;80.66;102627.78;4971620;28;20510;-93
2023/02/11 10:34:23;;;;;;;7.38;1.88;;;;;;;12.47;80.30;102611.97;4960576;28;20473;-93
2023/02/11 10:36:49;;;;;;;7.00;1.92;;;;;;;12.63;79.27;102627.00;4975447;28;20027;-92
2023/02/11 10:39:23;;;;;;;7.53;3.25;;;;;;;12.68;78.80;102634.66;4973327;28;20031;-92
2023/02/11 10:42:06;;;;;;;8.77;2.40;;;;;;;12.73;78.36;102634.47;4957365;28;20436;-92
2023/02/11 10:44:42;;;;;;;4.72;1.58;;;;;;;12.68;76.64;102634.66;4956998;28;20023;-93
2023/02/11 10:47:20;;;;;;;2.95;1.30;;;;;;;12.59;77.70;102640.09;4967864;28;20033;-95
2023/02/11 10:49:46;;;;;;;4.90;1.60;;;;;;;12.75;77.42;102633.56;4976004;28;20185;-93
2023/02/11 10:52:24;;;;;;;6.72;1.95;;;;;;;12.81;76.94;102629.91;4976112;28;20114;-93
2023/02/11 10:54:56;;;;;;;3.47;1.42;;;;;;;13.07;75.81;102637.69;4975750;28;20114;-92
2023/02/11 10:57:28;;;;;;;5.32;2.20;;;;;;;13.05;75.46;102623.94;4958943;28;20027;-92
2023/02/11 11:00:01;;;;;;;5.38;1.90;;;;;;;13.33;75.53;102635.16;4981115;28;20024;-93
2023/02/11 11:02:33;;;;;;;4.45;1.52;;;;;;;13.63;72.10;102623.75;4978945;28;20069;-92
2023/02/11 11:05:05;;;;;;;4.53;1.63;;;;;;;14.63;67.81;102621.78;4977436;28;20023;-92
2023/02/11 11:07:32;;;;;;;4.50;1.73;;;;;;;15.53;64.01;102632.78;4976844;28;20033;-91
2023/02/11 11:10:07;;;;;;;4.05;1.77;;;;;;;15.35;63.65;102632.66;4974509;28;20030;-92
2023/02/11 11:12:45;;;;;;;4.03;1.45;;;;;;;14.58;66.57;102634.09;4997556;28;20029;-93
2023/02/11 11:15:10;;;;;;;4.13;1.40;;;;;;;14.04;67.88;102630.91;4997402;28;20037;-93
2023/02/11 11:17:36;;;;;;;7.10;1.50;;;;;;;13.90;67.93;102634.03;4994731;28;20027;-92
2023/02/11 11:20:28;;;;;;;3.63;1.33;;;;;;;14.17;67.70;102634.75;4978332;28;20030;-93
2023/02/11 11:23:17;;;;;;;2.53;0.93;;;;;;;14.40;66.36;102623.50;4974151;28;20488;-92
2023/02/11 11:25:57;;;;;;;4.18;1.20;;;;;;;14.01;67.12;102611.09;4983483;28;20070;-93
2023/02/11 11:28:25;;;;;;;1.27;0.50;;;;;;;14.11;67.42;102629.78;4972509;28;20039;-94
2023/02/11 11:30:52;;;;;;;3.60;0.60;;;;;;;14.00;66.76;102622.41;4976114;28;20494;-92
2023/02/11 11:33:23;;;;;;;2.92;1.00;;;;;;;14.06;66.37;102629.13;4968101;28;20055;-92
2023/02/11 11:36:10;;;;;;;7.47;0.80;;;;;;;13.99;67.67;102612.91;4991185;28;20130;-93